Time;durP1;ratioP1;P1;durP2;ratioP2;P2;SDS_P1;SDS_P2;PMS_P1;PMS_P2;Temp;Humidity;BMP_temperature;BMP_pressure;BME280_temperature;BME280_humidity;BME280_pressure;Samples;Min_cycle;Max_cycle;Signal;HPM_P1;HPM_P2
2021/07/22 00:00:13;;;;;;;12.35;5.97;;;;;;;17.53;100.00;100220.75;1744199;80;21451;-59
2021/07/22 00:02:42;;;;;;;10.55;5.08;;;;;;;17.53;100.00;100228.88;1744723;81;20886;-59
2021/07/22 00:05:09;;;;;;;6.58;4.85;;;;;;;17.53;100.00;100220.75;1744539;80;21071;-61
2021/07/22 00:07:37;;;;;;;9.73;5.55;;;;;;;17.53;100.00;100223.46;1747904;81;20870;-60
2021/07/22 00:10:05;;;;;;;10.40;5.00;;;;;;;17.53;100.00;100227.53;1732762;81;21253;-59
2021/07/22 00:12:41;;;;;;;10.10;5.05;;;;;;;17.51;100.00;100229.02;1751196;80;21583;-59
2021/07/22 00:15:08;;;;;;;9.53;5.28;;;;;;;17.49;100.00;100230.09;1721636;80;20977;-57
2021/07/22 00:17:36;;;;;;;10.63;5.45;;;;;;;17.46;100.00;100223.04;1724980;81;21127;-57
2021/07/22 00:20:05;;;;;;;9.50;5.00;;;;;;;17.42;100.00;100222.41;1750835;80;20941;-58
2021/07/22 00:22:37;;;;;;;8.95;4.83;;;;;;;17.41;100.00;100219.80;1746592;80;20898;-58
2021/07/22 00:25:08;;;;;;;9.40;5.10;;;;;;;17.37;100.00;100219.18;1743498;81;20971;-58
2021/07/22 00:27:35;;;;;;;8.43;4.85;;;;;;;17.36;100.00;100217.45;1733612;80;20921;-58
2021/07/22 00:30:03;;;;;;;13.15;5.17;;;;;;;17.35;100.00;100204.84;1732412;81;21361;-57
2021/07/22 00:32:30;;;;;;;5.90;4.47;;;;;;;17.36;100.00;100207.09;1747957;81;20914;-57
2021/07/22 00:34:57;;;;;;;7.17;5.00;;;;;;;17.36;100.00;100216.56;1729874;81;20902;-57
2021/07/22 00:37:24;;;;;;;9.45;4.50;;;;;;;17.37;100.00;100209.70;1726307;82;20989;-57
2021/07/22 00:39:51;;;;;;;9.00;4.92;;;;;;;17.36;100.00;100226.93;1777968;79;20926;-57
2021/07/22 00:42:19;;;;;;;8.58;4.95;;;;;;;17.36;100.00;100239.12;1783472;79;21080;-59
2021/07/22 00:44:47;;;;;;;9.13;4.85;;;;;;;17.37;100.00;100219.18;1787743;79;20894;-59
2021/07/22 00:47:15;;;;;;;8.65;4.80;;;;;;;17.36;100.00;100228.28;1780521;78;20929;-57
2021/07/22 00:49:44;;;;;;;7.00;4.40;;;;;;;17.35;100.00;100223.81;1733533;81;20937;-57
2021/07/22 00:52:12;;;;;;;8.38;4.83;;;;;;;17.35;100.00;100234.65;1714990;82;20890;-59
2021/07/22 00:54:39;;;;;;;10.32;4.90;;;;;;;17.32;100.00;100234.88;1714265;81;21731;-56
2021/07/22 00:57:06;;;;;;;9.48;4.87;;;;;;;17.32;100.00;100225.39;1744416;80;20965;-59
2021/07/22 00:59:35;;;;;;;8.88;4.83;;;;;;;17.30;100.00;100225.99;1748735;80;20906;-57
2021/07/22 01:02:06;;;;;;;6.28;4.78;;;;;;;17.29;100.00;100230.56;1744072;80;20908;-58
2021/07/22 01:04:32;;;;;;;10.88;5.08;;;;;;;17.27;100.00;100226.22;1744130;80;20972;-59
2021/07/22 01:07:01;;;;;;;8.13;4.42;;;;;;;17.23;100.00;100222.00;1745439;81;21055;-57
2021/07/22 01:09:28;;;;;;;9.25;4.72;;;;;;;17.25;100.00;100217.34;1735663;81;20913;-59
2021/07/22 01:11:56;;;;;;;8.25;4.30;;;;;;;17.23;100.00;100216.59;1747868;80;20973;-58
2021/07/22 01:14:24;;;;;;;7.62;4.53;;;;;;;17.21;100.00;100222.60;1745582;81;20902;-58
2021/07/22 01:16:52;;;;;;;11.80;4.65;;;;;;;17.23;100.00;100222.00;1728530;81;20958;-58
2021/07/22 01:19:19;;;;;;;8.73;4.37;;;;;;;17.24;100.00;100225.09;1730555;81;21106;-58
2021/07/22 01:21:46;;;;;;;8.75;4.55;;;;;;;17.21;100.00;100221.25;1753473;80;20957;-57
2021/07/22 01:24:13;;;;;;;8.15;4.53;;;;;;;17.21;100.00;100225.31;1732853;80;21040;-58
2021/07/22 01:26:51;;;;;;;7.03;4.58;;;;;;;17.21;100.00;100225.31;1683850;80;21289;-57
2021/07/22 01:29:23;;;;;;;5.85;4.40;;;;;;;17.21;100.00;100223.95;1742314;80;21507;-57
2021/07/22 01:31:51;;;;;;;8.55;4.70;;;;;;;17.21;100.00;100226.66;1731551;81;21049;-57
2021/07/22 01:34:18;;;;;;;9.58;4.80;;;;;;;17.21;100.00;100222.60;1753625;80;21424;-57
2021/07/22 01:36:45;;;;;;;7.03;4.60;;;;;;;17.23;100.00;100224.71;1732691;81;21012;-57
2021/07/22 01:39:12;;;;;;;8.18;4.53;;;;;;;17.24;100.00;100218.31;1719312;82;20910;-57
2021/07/22 01:41:40;;;;;;;8.35;4.67;;;;;;;17.27;100.00;100211.31;1750051;80;20906;-58
2021/07/22 01:44:07;;;;;;;11.03;4.40;;;;;;;17.29;100.00;100220.20;1727113;82;20998;-57
2021/07/22 01:46:34;;;;;;;8.80;4.33;;;;;;;17.27;100.00;100216.27;1736031;81;21441;-57
2021/07/22 01:49:02;;;;;;;11.38;4.80;;;;;;;17.29;100.00;100214.78;1732564;80;20924;-57
2021/07/22 01:51:31;;;;;;;10.50;5.22;;;;;;;17.31;100.00;100215.53;1707783;82;20881;-59
2021/07/22 01:54:00;;;;;;;10.20;4.47;;;;;;;17.33;100.00;100216.28;1728816;81;20968;-57
2021/07/22 01:56:29;;;;;;;6.80;4.37;;;;;;;17.36;100.00;100214.73;1707308;82;21706;-57
2021/07/22 01:58:56;;;;;;;8.30;4.50;;;;;;;17.37;100.00;100227.30;1718505;82;20932;-58
2021/07/22 02:01:24;;;;;;;7.25;4.22;;;;;;;17.35;100.00;100221.10;1724429;81;21475;-60
2021/07/22 02:03:53;;;;;;;6.30;4.30;;;;;;;17.36;100.00;100231.47;1717772;82;20949;-59
2021/07/22 02:06:20;;;;;;;6.50;4.53;;;;;;;17.33;100.00;100230.72;1727397;81;21411;-60
2021/07/22 02:08:49;;;;;;;6.45;3.85;;;;;;;17.28;100.00;100226.59;1717736;82;21467;-60
2021/07/22 02:11:18;;;;;;;8.38;4.17;;;;;;;17.21;100.00;100223.95;1712353;82;21452;-60
2021/07/22 02:13:46;;;;;;;7.35;4.08;;;;;;;17.20;100.00;100222.23;1724020;81;20945;-60
2021/07/22 02:16:14;;;;;;;6.78;4.47;;;;;;;17.20;100.00;100214.09;1746756;80;20886;-60
2021/07/22 02:18:43;;;;;;;11.60;4.80;;;;;;;17.20;100.00;100215.45;1781745;79;20874;-60
2021/07/22 02:21:12;;;;;;;6.78;4.50;;;;;;;17.20;100.00;100216.81;1776447;79;21817;-62
2021/07/22 02:23:41;;;;;;;11.88;4.25;;;;;;;17.20;100.00;100222.23;1773912;79;20937;-60
2021/07/22 02:26:26;;;;;;;13.55;4.47;;;;;;;17.22;100.00;100220.27;1782363;79;21011;-59
2021/07/22 02:28:53;;;;;;;7.15;4.20;;;;;;;17.23;100.00;100217.94;1783405;79;20862;-59
2021/07/22 02:31:21;;;;;;;11.22;4.78;;;;;;;17.23;100.00;100224.20;1782616;79;20909;-58
2021/07/22 02:33:48;;;;;;;9.15;4.28;;;;;;;17.23;100.00;100219.30;1778482;79;21496;-59
2021/07/22 02:36:15;;;;;;;13.48;4.47;;;;;;;17.25;100.00;100213.27;1782092;79;21498;-59
2021/07/22 02:38:53;;;;;;;10.10;4.40;;;;;;;17.28;100.00;100225.24;1745573;81;21350;-58
2021/07/22 02:41:20;;;;;;;9.48;4.37;;;;;;;17.29;100.00;100224.27;1723244;80;21002;-59
2021/07/22 02:43:47;;;;;;;11.33;4.65;;;;;;;17.31;100.00;100223.66;1730440;81;21567;-58
2021/07/22 02:46:14;;;;;;;10.38;4.10;;;;;;;17.33;100.00;100227.13;1730770;81;21433;-58
2021/07/22 02:49:01;;;;;;;9.70;4.53;;;;;;;17.34;100.00;100230.21;1732901;81;20977;-58
2021/07/22 02:51:25;;;;;;;9.30;4.83;;;;;;;17.32;100.00;100226.75;1735918;81;20973;-58
2021/07/22 02:53:52;;;;;;;5.17;3.72;;;;;;;17.34;100.00;100231.56;1738531;81;21514;-58
2021/07/22 02:56:26;;;;;;;6.35;4.60;;;;;;;17.35;100.00;100241.42;1784968;79;20941;-58
2021/07/22 02:58:55;;;;;;;8.83;4.28;;;;;;;17.34;100.00;100234.27;1788610;79;21393;-58
2021/07/22 03:01:23;;;;;;;13.98;4.65;;;;;;;17.34;100.00;100239.69;1733981;81;21365;-59
2021/07/22 03:03:52;;;;;;;8.03;4.37;;;;;;;17.32;100.00;100245.71;1786013;78;20941;-60
2021/07/22 03:06:19;;;;;;;6.08;4.20;;;;;;;17.32;100.00;100255.19;1746050;80;20988;-60
2021/07/22 03:08:48;;;;;;;7.80;4.65;;;;;;;17.32;100.00;100252.48;1753867;81;20934;-60
2021/07/22 03:11:18;;;;;;;12.07;5.10;;;;;;;17.34;100.00;100255.95;1731962;81;22104;-59
2021/07/22 03:13:47;;;;;;;8.40;4.08;;;;;;;17.36;100.00;100259.45;1734633;80;21325;-60
2021/07/22 03:16:15;;;;;;;7.47;4.50;;;;;;;17.36;100.00;100260.80;1751129;80;21507;-60
2021/07/22 03:21:26;;;;;;;8.58;4.40;;;;;;;17.38;100.00;100271.03;1708612;81;21789;-60
2021/07/22 03:23:54;;;;;;;8.45;4.12;;;;;;;17.41;100.00;100265.86;1722346;82;21080;-60
2021/07/22 03:26:22;;;;;;;8.88;4.28;;;;;;;17.43;100.00;100266.62;1740153;81;20949;-60
2021/07/22 03:28:51;;;;;;;13.55;4.15;;;;;;;17.46;100.00;100282.66;1748498;81;21355;-60
2021/07/22 03:31:23;;;;;;;6.50;3.77;;;;;;;17.45;100.00;100273.67;1732745;80;20945;-60
2021/07/22 03:33:57;;;;;;;10.40;4.28;;;;;;;17.49;100.00;100280.22;1728092;80;20882;-60
2021/07/22 03:36:25;;;;;;;10.65;3.80;;;;;;;17.53;100.00;100282.61;1751651;80;21872;-60
2021/07/22 03:38:54;;;;;;;13.95;4.35;;;;;;;17.57;100.00;100285.95;1720072;80;21426;-60
2021/07/22 03:41:33;;;;;;;9.63;4.40;;;;;;;17.59;100.00;100282.67;1727010;80;21082;-59
2021/07/22 03:44:15;;;;;;;10.18;4.58;;;;;;;17.64;100.00;100287.26;1719176;81;21442;-59
2021/07/22 03:46:43;;;;;;;10.40;3.85;;;;;;;17.66;100.00;100283.06;1771572;78;20937;-59
2021/07/22 03:49:12;;;;;;;9.25;4.20;;;;;;;17.69;100.00;100276.94;1790353;78;21585;-59
2021/07/22 03:51:39;;;;;;;7.90;4.00;;;;;;;17.73;100.00;100273.53;1786144;79;20948;-59
2021/07/22 03:54:06;;;;;;;7.42;3.62;;;;;;;17.69;100.00;100285.08;1784479;79;21519;-60
2021/07/22 03:56:34;;;;;;;11.57;4.00;;;;;;;17.76;100.00;100278.72;1792780;78;21367;-60
2021/07/22 03:59:02;;;;;;;6.37;3.70;;;;;;;17.81;100.00;100274.33;1792138;78;21532;-60
2021/07/22 04:01:32;;;;;;;10.20;3.95;;;;;;;17.84;100.00;100274.09;1789115;79;21579;-60
2021/07/22 04:04:01;;;;;;;12.18;3.77;;;;;;;17.85;100.00;100270.41;1792343;79;20882;-61
2021/07/22 04:06:28;;;;;;;8.80;3.45;;;;;;;17.85;100.00;100273.12;1790422;79;20898;-59
2021/07/22 04:08:56;;;;;;;6.35;3.50;;;;;;;17.85;100.00;100275.83;1792937;79;21303;-60
2021/07/22 04:11:35;;;;;;;8.13;3.47;;;;;;;17.87;100.00;100278.79;1785708;79;20871;-62
2021/07/22 04:14:20;;;;;;;12.03;3.70;;;;;;;17.92;100.00;100285.23;1789154;78;21059;-59
2021/07/22 04:17:05;;;;;;;5.28;3.52;;;;;;;17.95;100.00;100279.58;1798234;78;20980;-60
2021/07/22 04:19:50;;;;;;;6.03;3.42;;;;;;;18.00;100.00;100277.39;1792009;79;20928;-60
2021/07/22 04:22:19;;;;;;;6.15;3.72;;;;;;;18.01;100.00;100282.34;1783981;78;20866;-60
2021/07/22 04:24:48;;;;;;;6.12;3.87;;;;;;;18.08;100.00;100277.36;1791242;79;21320;-60
2021/07/22 04:27:27;;;;;;;9.58;4.15;;;;;;;18.17;100.00;100273.95;1795410;78;21694;-60
2021/07/22 04:30:09;;;;;;;7.67;3.85;;;;;;;18.27;100.00;100280.44;1791904;79;21266;-60
2021/07/22 04:32:58;;;;;;;7.67;3.40;;;;;;;18.41;100.00;100290.25;1791326;79;21314;-58
2021/07/22 04:35:30;;;;;;;6.12;3.15;;;;;;;18.50;100.00;100292.77;1789561;79;20988;-57
2021/07/22 04:38:13;;;;;;;6.12;3.30;;;;;;;18.49;100.00;100305.08;1797283;79;20865;-57
2021/07/22 04:40:57;;;;;;;9.03;3.40;;;;;;;18.58;100.00;100307.11;1722373;81;21438;-56
2021/07/22 04:43:41;;;;;;;12.28;3.90;;;;;;;18.59;100.00;100312.41;1751252;80;21451;-58
2021/07/22 04:46:13;;;;;;;7.70;3.15;;;;;;;18.70;100.00;100306.16;1761731;78;21418;-57
2021/07/22 04:48:57;;;;;;;;;;;;;;;18.82;100.00;100307.58;1748971;80;21318;-56
2021/07/22 04:51:27;;;;;;;9.03;3.55;;;;;;;18.86;100.00;100318.56;1763340;79;20401;-57
2021/07/22 04:54:04;;;;;;;9.48;3.15;;;;;;;18.88;100.00;100317.95;1764252;80;21100;-58
2021/07/22 04:56:31;;;;;;;7.55;3.50;;;;;;;18.95;100.00;100333.30;1766943;78;21480;-56
2021/07/22 04:58:59;;;;;;;8.95;3.47;;;;;;;19.04;100.00;100320.38;1766875;80;20940;-57
2021/07/22 05:01:28;;;;;;;5.20;2.90;;;;;;;19.12;100.00;100338.33;1764466;80;20980;-57
2021/07/22 05:03:56;;;;;;;5.92;3.22;;;;;;;19.23;100.00;100323.02;1759987;78;21831;-57
2021/07/22 05:06:25;;;;;;;4.42;2.83;;;;;;;19.41;100.00;100313.41;1765142;79;21771;-58
2021/07/22 05:09:03;;;;;;;7.92;3.50;;;;;;;19.50;100.00;100334.05;1760973;79;21371;-57
2021/07/22 05:11:38;;;;;;;6.55;3.05;;;;;;;19.70;100.00;100315.64;1759240;80;20886;-57
2021/07/22 05:14:06;;;;;;;6.33;3.67;;;;;;;19.82;100.00;100321.09;1774654;78;21750;-58
2021/07/22 05:16:47;;;;;;;9.10;3.40;;;;;;;19.92;100.00;100334.33;1760798;79;20917;-58
2021/07/22 05:19:16;;;;;;;6.42;2.98;;;;;;;19.99;100.00;100335.55;1764590;80;21057;-57
2021/07/22 05:21:48;;;;;;;6.25;3.40;;;;;;;20.09;100.00;100335.67;1760374;79;21390;-58
2021/07/22 05:24:17;;;;;;;7.20;3.40;;;;;;;20.18;100.00;100340.85;1753939;79;20896;-56
2021/07/22 05:26:54;;;;;;;7.50;2.92;;;;;;;20.30;100.00;100340.34;1766009;80;20897;-57
2021/07/22 05:29:26;;;;;;;10.98;3.30;;;;;;;20.41;98.98;100357.14;1772198;79;21388;-57
2021/07/22 05:31:55;;;;;;;5.90;3.05;;;;;;;20.56;95.19;100347.70;1769320;78;21539;-57
2021/07/22 05:34:27;;;;;;;5.28;2.95;;;;;;;20.79;92.75;100338.08;1765056;79;21306;-58
2021/07/22 05:36:56;;;;;;;9.40;2.90;;;;;;;20.99;91.94;100340.48;1762099;79;20908;-58
2021/07/22 05:39:26;;;;;;;6.37;2.65;;;;;;;21.20;86.93;100331.45;1762866;79;21434;-57
2021/07/22 05:41:53;;;;;;;4.33;3.30;;;;;;;21.29;83.39;100351.60;1766938;79;20980;-57
2021/07/22 05:44:21;;;;;;;9.18;3.20;;;;;;;21.38;86.31;100360.36;1778335;78;21138;-58
2021/07/22 05:46:51;;;;;;;6.35;2.72;;;;;;;21.47;87.96;100339.09;1762711;78;20924;-57
2021/07/22 05:49:18;;;;;;;10.08;3.25;;;;;;;21.52;83.88;100337.81;1777882;78;20929;-58
2021/07/22 05:51:45;;;;;;;12.75;3.25;;;;;;;21.52;83.53;100344.14;1770843;78;21453;-57
2021/07/22 05:54:12;;;;;;;9.25;2.45;;;;;;;21.49;84.63;100336.23;1769546;78;21381;-58
2021/07/22 05:56:39;;;;;;;6.30;2.90;;;;;;;21.49;83.98;100344.42;1772014;78;21380;-57
2021/07/22 05:59:06;;;;;;;7.45;3.30;;;;;;;21.54;85.59;100350.81;1775041;78;21479;-58
2021/07/22 06:04:05;;;;;;;4.97;3.17;;;;;;;21.78;84.06;100340.16;1771388;78;20933;-58
2021/07/22 06:06:35;;;;;;;7.03;2.90;;;;;;;21.86;82.81;100334.86;1776083;78;21305;-58
2021/07/22 06:09:02;;;;;;;6.53;3.10;;;;;;;21.95;84.17;100331.81;1775510;78;21095;-58
2021/07/22 06:11:29;;;;;;;7.15;2.92;;;;;;;22.04;82.57;100347.34;1777528;78;20933;-58
2021/07/22 06:16:24;;;;;;;9.20;2.85;;;;;;;22.30;83.47;100336.79;1742892;80;20874;-60
2021/07/22 06:18:52;;;;;;;4.75;2.80;;;;;;;22.42;77.70;100377.61;1782593;78;20862;-59
2021/07/22 06:21:19;;;;;;;4.70;2.62;;;;;;;22.55;76.92;100348.73;1737079;80;21105;-58
2021/07/22 06:23:46;;;;;;;7.85;2.87;;;;;;;22.60;75.78;100363.67;1736786;80;20941;-58
2021/07/22 06:26:13;;;;;;;7.30;2.75;;;;;;;22.67;73.85;100344.00;1771469;78;20894;-58
2021/07/22 06:31:15;;;;;;;6.33;2.52;;;;;;;22.79;76.47;100351.55;1775875;78;20953;-58
2021/07/22 06:33:56;;;;;;;9.53;2.70;;;;;;;22.82;69.95;100367.14;1767698;78;21254;-58
2021/07/22 06:36:25;;;;;;;7.03;2.52;;;;;;;22.88;72.14;100348.82;1769276;78;20926;-59
2021/07/22 06:38:52;;;;;;;8.53;2.83;;;;;;;22.99;72.84;100383.84;1769889;78;21504;-59
2021/07/22 06:41:21;;;;;;;11.68;2.45;;;;;;;23.11;69.19;100351.25;1776743;78;20894;-60
2021/07/22 06:43:49;;;;;;;7.75;2.33;;;;;;;23.23;71.37;100345.61;1781415;79;20917;-58
2021/07/22 06:46:16;;;;;;;7.62;2.80;;;;;;;23.33;66.15;100356.08;1779911;78;21811;-58
2021/07/22 06:48:44;;;;;;;9.15;2.60;;;;;;;23.43;63.81;100362.37;1782197;78;20909;-59
2021/07/22 06:51:11;;;;;;;11.65;2.20;;;;;;;23.50;63.96;100367.25;1781667;78;21469;-58
2021/07/22 06:53:38;;;;;;;9.48;2.45;;;;;;;23.54;66.03;100350.40;1780238;79;20948;-59
2021/07/22 06:56:06;;;;;;;7.78;2.72;;;;;;;23.63;70.58;100354.12;1779429;78;20948;-58
2021/07/22 06:58:33;;;;;;;11.55;3.20;;;;;;;23.70;61.04;100384.49;1726217;81;21288;-60
2021/07/22 07:01:00;;;;;;;3.37;2.37;;;;;;;23.82;65.34;100368.23;1721786;82;20969;-59
2021/07/22 07:03:27;;;;;;;6.50;2.55;;;;;;;23.88;64.40;100357.20;1728871;81;21127;-60
2021/07/22 07:05:54;;;;;;;10.70;2.70;;;;;;;23.98;63.22;100385.90;1715602;81;21076;-59
2021/07/22 07:08:21;;;;;;;10.88;2.33;;;;;;;24.11;65.81;100362.31;1744047;80;21639;-60
2021/07/22 07:10:50;;;;;;;7.90;2.30;;;;;;;24.14;60.49;100370.22;1710525;82;21161;-60
2021/07/22 07:13:18;;;;;;;7.65;2.30;;;;;;;24.17;62.96;100368.53;1755701;80;20913;-59
2021/07/22 07:18:23;;;;;;;5.95;2.55;;;;;;;24.18;61.81;100368.89;1781704;79;20921;-59
2021/07/22 07:20:50;;;;;;;4.17;2.00;;;;;;;24.17;59.45;100384.97;1781490;79;21656;-59
2021/07/22 07:23:17;;;;;;;3.70;2.17;;;;;;;24.14;60.09;100390.75;1780813;79;21129;-59
2021/07/22 07:25:44;;;;;;;7.28;2.22;;;;;;;24.12;60.04;100394.16;1778050;79;21437;-58
2021/07/22 07:28:12;;;;;;;6.70;2.65;;;;;;;24.11;59.09;100393.31;1787196;79;20988;-58
2021/07/22 07:30:40;;;;;;;10.53;2.55;;;;;;;24.18;60.17;100389.43;1775719;79;20996;-59
2021/07/22 07:33:08;;;;;;;9.58;2.62;;;;;;;24.34;60.56;100381.07;1771214;79;21560;-60
2021/07/22 07:35:35;;;;;;;9.90;2.52;;;;;;;24.48;57.98;100395.63;1778073;79;21114;-58
2021/07/22 07:38:03;;;;;;;9.15;2.30;;;;;;;24.56;55.57;100390.23;1746530;81;21060;-60
2021/07/22 07:40:30;;;;;;;6.87;2.80;;;;;;;24.59;55.02;100384.44;1722830;82;20978;-58
2021/07/22 07:42:57;;;;;;;10.38;2.30;;;;;;;24.64;54.88;100424.22;1748454;80;20949;-61
2021/07/22 07:45:29;;;;;;;9.30;2.75;;;;;;;24.71;55.66;100389.19;1745215;80;20914;-59
2021/07/22 07:47:53;;;;;;;6.67;2.60;;;;;;;24.84;57.42;100377.86;1723318;82;21992;-58
2021/07/22 07:50:20;;;;;;;6.17;2.17;;;;;;;25.05;55.59;100400.52;1723393;82;20969;-60
2021/07/22 07:52:47;;;;;;;10.13;2.40;;;;;;;25.24;52.40;100432.39;1722866;82;21284;-58
2021/07/22 07:55:17;;;;;;;7.90;2.70;;;;;;;25.35;53.77;100404.73;1709355;82;20927;-57
2021/07/22 07:57:46;;;;;;;6.08;2.58;;;;;;;25.37;53.82;100406.80;1734126;81;21021;-61
2021/07/22 08:00:14;;;;;;;9.30;2.40;;;;;;;25.32;53.41;100423.73;1751673;80;21969;-63
2021/07/22 08:02:47;;;;;;;6.67;2.27;;;;;;;25.21;52.47;100416.26;1752932;80;20937;-60
2021/07/22 08:05:14;;;;;;;4.33;2.70;;;;;;;25.13;54.53;100398.72;1746518;80;21108;-60
2021/07/22 08:07:41;;;;;;;7.65;2.42;;;;;;;25.13;54.91;100406.07;1718602;82;21024;-63
2021/07/22 08:10:13;;;;;;;6.83;2.52;;;;;;;25.14;54.58;100410.53;1707570;82;21036;-61
2021/07/22 08:12:42;;;;;;;6.17;2.25;;;;;;;25.17;56.32;100391.89;1718914;82;21568;-60
2021/07/22 08:15:11;;;;;;;7.30;2.30;;;;;;;25.18;55.31;100403.22;1709414;82;20954;-59
2021/07/22 08:17:39;;;;;;;8.58;2.60;;;;;;;25.14;54.37;100416.02;1731965;80;20991;-58
2021/07/22 08:20:07;;;;;;;9.65;2.50;;;;;;;25.10;54.96;100410.02;1748068;80;20926;-59
2021/07/22 08:22:34;;;;;;;7.08;2.22;;;;;;;25.03;55.67;100412.52;1724634;81;21079;-60
2021/07/22 08:25:04;;;;;;;7.47;2.20;;;;;;;25.00;54.37;100435.27;1746590;80;21028;-60
2021/07/22 08:27:32;;;;;;;8.03;2.27;;;;;;;25.03;54.52;100413.89;1728145;81;20972;-60
2021/07/22 08:29:59;;;;;;;5.03;1.90;;;;;;;25.09;52.54;100442.57;1724341;80;21127;-60
2021/07/22 08:32:26;;;;;;;9.50;2.05;;;;;;;25.12;51.31;100468.30;1741172;80;20918;-60
2021/07/22 08:34:54;;;;;;;6.22;2.20;;;;;;;25.14;52.11;100438.84;1747274;81;20970;-58
2021/07/22 08:37:22;;;;;;;5.62;2.00;;;;;;;25.16;52.81;100446.89;1724988;80;21076;-59
2021/07/22 08:39:51;;;;;;;9.70;2.30;;;;;;;25.21;52.16;100446.43;1747212;80;21355;-58
2021/07/22 08:42:18;;;;;;;9.88;2.33;;;;;;;25.23;53.14;100430.67;1743598;80;20914;-58
2021/07/22 08:44:45;;;;;;;10.23;2.60;;;;;;;25.26;53.12;100445.44;1730276;81;21402;-59
2021/07/22 08:47:12;;;;;;;4.58;2.10;;;;;;;25.29;53.74;100405.34;1729237;81;20921;-58
2021/07/22 08:49:39;;;;;;;9.45;2.33;;;;;;;25.35;52.85;100409.34;1722193;82;21612;-59
2021/07/22 08:52:09;;;;;;;6.65;2.50;;;;;;;25.42;52.64;100442.84;1720088;81;20944;-62
2021/07/22 08:54:38;;;;;;;7.12;2.30;;;;;;;25.43;51.08;100436.34;1722841;81;20942;-60
2021/07/22 08:57:11;;;;;;;9.20;2.65;;;;;;;25.43;51.19;100421.25;1721047;81;21581;-58
2021/07/22 08:59:39;;;;;;;11.43;2.00;;;;;;;25.53;51.45;100405.22;1724116;81;20953;-60
2021/07/22 09:02:06;;;;;;;12.23;2.15;;;;;;;25.65;49.99;100457.47;1720210;82;21133;-59
2021/07/22 09:04:53;;;;;;;6.08;2.10;;;;;;;25.76;50.38;100420.66;1723032;82;20993;-60
2021/07/22 09:07:20;;;;;;;5.00;1.80;;;;;;;25.72;49.42;100453.05;1717819;81;21418;-58
2021/07/22 09:10:08;;;;;;;3.55;1.90;;;;;;;25.71;49.55;100419.75;1710479;81;20995;-59
2021/07/22 09:12:45;;;;;;;7.05;2.17;;;;;;;25.76;48.04;100444.52;1726819;82;21441;-59
2021/07/22 09:15:23;;;;;;;11.33;2.50;;;;;;;25.83;48.34;100437.34;1762519;78;21827;-60
2021/07/22 09:17:50;;;;;;;5.42;1.90;;;;;;;25.91;48.51;100470.34;1770951;78;21286;-58
2021/07/22 09:20:32;;;;;;;9.95;2.30;;;;;;;26.03;49.43;100421.49;1762672;78;20870;-58
2021/07/22 09:23:01;;;;;;;9.15;2.02;;;;;;;26.14;50.17;100436.83;1729371;80;20897;-57
2021/07/22 09:25:42;;;;;;;3.95;2.05;;;;;;;26.20;49.00;100427.11;1763365;80;21877;-58
2021/07/22 09:28:22;;;;;;;6.12;1.92;;;;;;;26.19;47.88;100455.08;1764066;80;21518;-58
2021/07/22 09:31:04;;;;;;;6.15;1.90;;;;;;;26.14;47.75;100425.84;1765894;78;20984;-58
2021/07/22 09:33:38;;;;;;;23.67;2.87;;;;;;;26.20;47.29;100438.98;1764533;78;21291;-59
2021/07/22 09:36:06;;;;;;;8.60;2.10;;;;;;;26.36;48.39;100411.20;1765828;80;21280;-58
2021/07/22 09:38:33;;;;;;;20.15;3.30;;;;;;;26.41;47.15;100478.89;1769705;78;20922;-59
2021/07/22 09:41:01;;;;;;;15.65;2.40;;;;;;;26.29;47.62;100431.11;1764652;78;21949;-59
2021/07/22 09:44:03;;;;;;;23.42;3.33;;;;;;;26.16;46.99;100435.69;1763612;79;20902;-60
2021/07/22 09:46:41;;;;;;;30.55;3.30;;;;;;;26.15;47.48;100423.44;1777823;78;21084;-58
2021/07/22 09:49:09;;;;;;;18.92;2.55;;;;;;;26.23;46.86;100410.30;1779849;78;20945;-60
2021/07/22 09:51:37;;;;;;;11.63;1.98;;;;;;;26.25;44.98;100435.72;1782424;79;20976;-60
2021/07/22 09:54:12;;;;;;;15.32;2.40;;;;;;;26.26;45.42;100424.58;1781024;78;21605;-58
2021/07/22 09:56:40;;;;;;;6.80;2.33;;;;;;;26.30;46.08;100464.42;1787849;79;21525;-60
2021/07/22 09:59:09;;;;;;;18.92;3.12;;;;;;;26.38;44.97;100411.40;1789776;79;21354;-59
2021/07/22 10:01:46;;;;;;;26.25;3.37;;;;;;;26.47;45.14;100465.88;1780758;79;20854;-60
2021/07/22 10:04:14;;;;;;;23.83;3.90;;;;;;;26.45;45.14;100420.69;1719458;81;20976;-60
2021/07/22 10:09:36;;;;;;;24.80;3.70;;;;;;;26.23;44.40;100420.79;1775930;79;21419;-60
2021/07/22 10:12:05;;;;;;;13.25;2.60;;;;;;;26.29;44.74;100407.75;1780227;79;20942;-60
2021/07/22 10:14:32;;;;;;;5.35;1.80;;;;;;;26.46;45.05;100411.95;1724275;80;20931;-60
2021/07/22 10:17:00;;;;;;;5.30;2.00;;;;;;;26.53;42.92;100463.00;1745716;80;20882;-60
2021/07/22 10:19:28;;;;;;;6.42;1.80;;;;;;;26.54;43.07;100438.08;1717424;81;22226;-59
2021/07/22 10:21:56;;;;;;;6.35;1.70;;;;;;;26.58;40.83;100402.34;1729794;81;21473;-60
2021/07/22 10:24:24;;;;;;;3.83;2.02;;;;;;;26.54;41.49;100430.36;1727637;81;20926;-60
2021/07/22 10:26:51;;;;;;;3.75;1.90;;;;;;;26.53;41.20;100413.52;1711562;82;21435;-58
2021/07/22 10:29:19;;;;;;;6.17;2.17;;;;;;;26.54;42.56;100445.48;1743424;80;20911;-60
2021/07/22 10:31:47;;;;;;;4.08;1.70;;;;;;;26.49;42.51;100440.47;1725897;80;21509;-58
2021/07/22 10:34:16;;;;;;;3.30;1.90;;;;;;;26.47;42.67;100426.03;1744924;80;21379;-60
2021/07/22 10:36:45;;;;;;;5.12;2.17;;;;;;;26.48;40.93;100462.61;1735454;80;20938;-60
2021/07/22 10:39:13;;;;;;;6.12;2.50;;;;;;;26.49;41.79;100430.84;1716056;82;21543;-59
2021/07/22 10:41:41;;;;;;;6.78;2.70;;;;;;;26.50;41.40;100456.42;1783125;79;20956;-60
2021/07/22 10:44:10;;;;;;;9.78;2.50;;;;;;;26.53;42.33;100399.25;1779167;79;22415;-60
2021/07/22 10:47:07;;;;;;;5.55;2.10;;;;;;;26.59;43.29;100423.31;1782950;79;21431;-60
2021/07/22 10:49:39;;;;;;;7.37;1.95;;;;;;;26.67;41.36;100450.50;1731902;78;21332;-60
2021/07/22 10:52:06;;;;;;;9.90;2.30;;;;;;;26.67;41.24;100461.50;1770169;79;20961;-60
2021/07/22 10:54:44;;;;;;;12.23;2.22;;;;;;;26.67;41.49;100434.00;1779964;79;20894;-58
2021/07/22 10:57:37;;;;;;;14.13;2.52;;;;;;;26.66;41.87;100452.91;1781543;78;21564;-60
2021/07/22 11:00:12;;;;;;;14.98;2.62;;;;;;;26.64;42.59;100449.43;1786752;78;21012;-60
2021/07/22 11:02:44;;;;;;;14.70;2.65;;;;;;;26.55;42.07;100443.91;1785787;79;21600;-59
2021/07/22 11:05:26;;;;;;;9.53;2.27;;;;;;;26.53;43.36;100441.85;1787053;79;20906;-60
2021/07/22 11:08:19;;;;;;;4.78;2.20;;;;;;;26.57;43.60;100447.36;1759236;79;21452;-61
2021/07/22 11:10:54;;;;;;;6.10;2.35;;;;;;;26.59;43.45;100438.42;1787184;79;21840;-60
2021/07/22 11:13:50;;;;;;;11.35;2.80;;;;;;;26.63;44.02;100418.34;1784234;79;20965;-60
2021/07/22 11:19:14;;;;;;;4.00;2.10;;;;;;;26.64;43.05;100433.81;1771446;79;21463;-60
2021/07/22 11:21:47;;;;;;;20.17;3.60;;;;;;;26.60;43.64;100444.27;1777016;78;21450;-59
2021/07/22 11:24:18;;;;;;;9.10;2.10;;;;;;;26.55;40.92;100447.19;1778534;78;21502;-59
2021/07/22 11:26:55;;;;;;;10.35;2.22;;;;;;;26.52;40.08;100436.51;1791500;78;21259;-60
2021/07/22 11:29:22;;;;;;;16.95;2.30;;;;;;;26.50;40.04;100458.68;1778287;79;20936;-60
2021/07/22 11:31:51;;;;;;;8.08;2.30;;;;;;;26.52;41.22;100429.14;1776379;78;20875;-60
2021/07/22 11:34:24;;;;;;;4.70;2.27;;;;;;;26.57;42.50;100437.73;1783889;79;20937;-59
2021/07/22 11:36:54;;;;;;;11.20;2.25;;;;;;;26.62;39.87;100439.12;1785391;79;21115;-60
2021/07/22 11:39:43;;;;;;;4.67;2.42;;;;;;;26.62;40.65;100429.00;1780140;78;21032;-60
2021/07/22 11:42:11;;;;;;;35.17;3.87;;;;;;;26.63;41.28;100455.95;1781870;78;21104;-60
2021/07/22 11:44:39;;;;;;;12.25;2.58;;;;;;;26.71;41.57;100437.60;1781590;79;21843;-60
2021/07/22 11:47:13;;;;;;;6.72;2.45;;;;;;;26.77;41.00;100503.45;1783332;79;21588;-59
2021/07/22 11:49:40;;;;;;;7.28;2.25;;;;;;;26.81;42.21;100420.95;1779224;78;21314;-59
2021/07/22 11:52:07;;;;;;;20.72;2.58;;;;;;;26.85;41.93;100422.90;1776864;78;20870;-60